createdAt,value
2022-09-28T00:00:47.345Z,6.90
2022-09-28T00:01:47.368Z,8.40
2022-09-28T00:02:47.335Z,6.50
2022-09-28T00:03:47.234Z,7.10
2022-09-28T00:04:47.191Z,7.00
2022-09-28T00:05:47.138Z,6.90
2022-09-28T00:06:47.097Z,5.70
2022-09-28T00:07:47.057Z,7.00
2022-09-28T00:08:47.016Z,6.00
2022-09-28T00:09:46.973Z,6.80
2022-09-28T00:10:46.971Z,5.40
2022-09-28T00:11:46.893Z,6.20
2022-09-28T00:12:46.849Z,7.00
2022-09-28T00:13:46.811Z,6.40
2022-09-28T00:14:46.767Z,6.20
2022-09-28T00:15:46.725Z,6.70
2022-09-28T00:16:46.764Z,6.50
2022-09-28T00:17:46.642Z,6.60
2022-09-28T00:18:46.606Z,7.20
2022-09-28T00:19:46.560Z,7.20
2022-09-28T00:20:46.525Z,6.40
2022-09-28T00:21:46.494Z,6.50
2022-09-28T00:22:46.437Z,6.50
2022-09-28T00:23:46.395Z,7.30
2022-09-28T00:24:46.356Z,6.30
2022-09-28T00:25:46.319Z,6.80
2022-09-28T00:26:46.272Z,4.80
2022-09-28T00:27:46.242Z,4.60
2022-09-28T00:28:46.189Z,5.10
2022-09-28T00:29:46.150Z,4.50
2022-09-28T00:30:46.107Z,6.70
2022-09-28T00:31:46.128Z,5.00
2022-09-28T00:32:46.024Z,4.10
2022-09-28T00:33:45.995Z,5.20
2022-09-28T00:34:46.013Z,4.30
2022-09-28T00:35:45.902Z,5.00
2022-09-28T00:36:45.862Z,4.40
2022-09-28T00:37:45.816Z,4.20
2022-09-28T00:38:45.777Z,5.70
2022-09-28T00:39:45.750Z,4.20
2022-09-28T00:40:45.718Z,4.80
2022-09-28T00:41:45.652Z,6.00
2022-09-28T00:42:45.614Z,4.30
2022-09-28T00:43:45.571Z,4.80
2022-09-28T00:44:45.531Z,4.20
2022-09-28T00:45:45.544Z,4.90
2022-09-28T00:46:45.448Z,4.30
2022-09-28T00:47:45.406Z,4.80
2022-09-28T00:48:45.365Z,4.50
2022-09-28T00:49:45.323Z,4.70
2022-09-28T00:50:45.280Z,4.40
2022-09-28T00:51:45.255Z,4.60
2022-09-28T00:52:45.201Z,4.60
2022-09-28T00:53:45.159Z,4.60
2022-09-28T00:54:45.118Z,4.50
2022-09-28T00:55:45.092Z,4.70
2022-09-28T00:56:45.032Z,5.80
2022-09-28T00:57:44.992Z,4.60
2022-09-28T00:58:44.950Z,5.40
2022-09-28T00:59:44.910Z,4.20
2022-09-28T01:00:44.902Z,4.90
2022-09-28T01:01:44.878Z,4.90
2022-09-28T01:02:44.786Z,4.90
2022-09-28T01:03:44.744Z,5.60
2022-09-28T01:04:44.702Z,5.30
2022-09-28T01:05:44.661Z,5.10
2022-09-28T01:06:44.621Z,5.30
2022-09-28T01:07:44.592Z,5.20
2022-09-28T01:08:44.539Z,6.60
2022-09-28T01:09:44.498Z,6.50
2022-09-28T01:10:44.456Z,6.50
2022-09-28T01:11:44.414Z,6.00
2022-09-28T01:12:44.371Z,5.80
2022-09-28T01:13:44.352Z,6.70
2022-09-28T01:14:44.292Z,7.60
2022-09-28T01:15:44.246Z,6.90
2022-09-28T01:16:44.262Z,8.20
2022-09-28T01:17:44.165Z,8.20
2022-09-28T01:18:44.123Z,8.80
2022-09-28T01:19:44.094Z,9.70
2022-09-28T01:20:44.042Z,9.00
2022-09-28T01:21:43.998Z,9.70
2022-09-28T01:22:43.958Z,10.20
2022-09-28T01:23:43.920Z,10.70
2022-09-28T01:24:43.875Z,11.30
2022-09-28T01:25:43.847Z,12.40
2022-09-28T01:26:43.790Z,12.40
2022-09-28T01:27:43.755Z,13.40
2022-09-28T01:28:43.715Z,14.00
2022-09-28T01:29:43.669Z,14.50
2022-09-28T01:30:43.628Z,15.30
2022-09-28T01:31:43.638Z,15.00
2022-09-28T01:32:43.552Z,15.30
2022-09-28T01:33:43.505Z,14.80
2022-09-28T01:34:43.465Z,16.20
2022-09-28T01:35:43.419Z,16.50
2022-09-28T01:36:43.381Z,16.30
2022-09-28T01:37:43.355Z,18.00
2022-09-28T01:38:43.300Z,17.60
2022-09-28T01:39:43.255Z,18.10
2022-09-28T01:40:43.260Z,17.40
2022-09-28T01:41:43.172Z,16.70
2022-09-28T01:42:43.143Z,17.00
2022-09-28T01:43:43.094Z,17.20
2022-09-28T01:44:43.051Z,17.30
2022-09-28T01:45:43.024Z,17.20
2022-09-28T01:46:42.965Z,16.90
2022-09-28T01:47:42.938Z,16.50
2022-09-28T01:48:42.899Z,17.20
2022-09-28T01:49:42.844Z,18.20
2022-09-28T01:50:42.809Z,16.30
2022-09-28T01:51:42.757Z,16.90
2022-09-28T01:52:42.733Z,17.30
2022-09-28T01:53:42.712Z,17.30
2022-09-28T01:54:42.644Z,16.20
2022-09-28T01:55:42.601Z,17.50
2022-09-28T01:56:42.553Z,17.30
2022-09-28T01:57:42.514Z,17.40
2022-09-28T01:58:42.470Z,17.30
2022-09-28T01:59:42.439Z,17.10
2022-09-28T02:00:42.429Z,17.50
2022-09-28T02:01:42.371Z,17.10
2022-09-28T02:02:42.306Z,17.20
2022-09-28T02:03:42.265Z,17.20
2022-09-28T02:04:42.235Z,16.60
2022-09-28T02:05:42.182Z,16.30
2022-09-28T02:06:42.140Z,17.40
2022-09-28T02:07:42.102Z,15.80
2022-09-28T02:08:42.063Z,16.50
2022-09-28T02:09:42.019Z,16.30
2022-09-28T02:10:41.991Z,16.90
2022-09-28T02:11:41.932Z,16.30
2022-09-28T02:12:41.893Z,17.40
2022-09-28T02:13:41.851Z,17.00
2022-09-28T02:14:41.810Z,16.30
2022-09-28T02:15:41.779Z,16.80
2022-09-28T02:16:41.787Z,16.60
2022-09-28T02:17:41.689Z,18.00
2022-09-28T02:18:41.645Z,16.30
2022-09-28T02:19:41.600Z,17.60
2022-09-28T02:20:41.563Z,17.00
2022-09-28T02:21:41.532Z,19.60
2022-09-28T02:22:41.478Z,16.40
2022-09-28T02:23:41.437Z,17.50
2022-09-28T02:24:41.412Z,17.20
2022-09-28T02:25:41.354Z,16.40
2022-09-28T02:26:41.313Z,17.20
2022-09-28T02:27:41.289Z,18.90
2022-09-28T02:28:41.232Z,18.20
2022-09-28T02:29:41.188Z,19.20
2022-09-28T02:30:41.150Z,18.30
2022-09-28T02:31:41.154Z,17.60
2022-09-28T02:32:41.064Z,17.80
2022-09-28T02:33:41.036Z,18.30
2022-09-28T02:34:40.986Z,18.20
2022-09-28T02:35:40.945Z,20.00
2022-09-28T02:36:40.903Z,19.20
2022-09-28T02:37:40.858Z,20.00
2022-09-28T02:38:40.826Z,19.10
2022-09-28T02:39:40.778Z,19.50
2022-09-28T02:40:40.765Z,20.30
2022-09-28T02:41:40.694Z,20.60
2022-09-28T02:42:40.656Z,23.50
2022-09-28T02:43:40.607Z,22.60
2022-09-28T02:44:40.586Z,26.20
2022-09-28T02:45:40.659Z,23.40
2022-09-28T02:46:40.491Z,24.70
2022-09-28T02:47:40.447Z,25.80
2022-09-28T02:48:43.874Z,25.80
2022-09-28T02:49:40.362Z,24.30
2022-09-28T02:50:40.333Z,24.30
2022-09-28T02:51:40.283Z,24.50
2022-09-28T02:52:40.241Z,24.60
2022-09-28T02:53:40.197Z,25.10
2022-09-28T02:54:40.157Z,23.50
2022-09-28T02:55:40.115Z,23.80
2022-09-28T02:56:40.084Z,23.90
2022-09-28T02:57:40.041Z,23.80
2022-09-28T02:58:39.990Z,23.10
2022-09-28T02:59:39.956Z,23.90
2022-09-28T03:00:39.941Z,26.40
2022-09-28T03:01:39.899Z,32.20
2022-09-28T03:02:39.838Z,29.80
2022-09-28T03:03:39.801Z,28.80
2022-09-28T03:04:39.744Z,29.60
2022-09-28T03:05:39.703Z,33.60
2022-09-28T03:06:39.660Z,30.80
2022-09-28T03:07:39.619Z,32.10
2022-09-28T03:08:39.582Z,34.50
2022-09-28T03:09:39.546Z,34.10
2022-09-28T03:10:39.496Z,34.60
2022-09-28T03:11:39.453Z,35.00
2022-09-28T03:12:39.411Z,34.90
2022-09-28T03:13:39.373Z,35.50
2022-09-28T03:14:39.360Z,36.00
2022-09-28T03:15:39.286Z,35.20
2022-09-28T03:16:39.278Z,36.20
2022-09-28T03:17:39.207Z,37.50
2022-09-28T03:18:39.164Z,36.80
2022-09-28T03:19:39.124Z,36.40
2022-09-28T03:20:39.092Z,36.50
2022-09-28T03:21:39.041Z,35.60
2022-09-28T03:22:39.009Z,37.50
2022-09-28T03:23:38.958Z,36.60
2022-09-28T03:24:38.915Z,37.30
2022-09-28T03:25:38.876Z,35.80
2022-09-28T03:26:38.837Z,35.30
2022-09-28T03:27:38.795Z,33.30
2022-09-28T03:28:38.764Z,34.20
2022-09-28T03:29:38.715Z,32.20
2022-09-28T03:30:38.668Z,31.20
2022-09-28T03:31:38.652Z,28.10
2022-09-28T03:32:38.595Z,29.60
2022-09-28T03:33:38.547Z,27.20
2022-09-28T03:34:38.517Z,28.20
2022-09-28T03:35:38.464Z,28.40
2022-09-28T03:36:38.424Z,28.00
2022-09-28T03:37:38.382Z,28.50
2022-09-28T03:38:38.339Z,29.10
2022-09-28T03:39:38.300Z,27.20
2022-09-28T03:40:38.328Z,26.00
2022-09-28T03:41:38.219Z,25.50
2022-09-28T03:42:38.174Z,25.00
2022-09-28T03:43:38.139Z,24.40
2022-09-28T03:44:38.090Z,26.00
2022-09-28T03:45:38.082Z,24.60
2022-09-28T03:46:38.023Z,25.00
2022-09-28T03:47:37.970Z,24.90
2022-09-28T03:48:37.926Z,24.20
2022-09-28T03:49:37.886Z,26.20
2022-09-28T03:50:37.844Z,24.60
2022-09-28T03:51:37.804Z,25.10
2022-09-28T03:52:37.774Z,24.60
2022-09-28T03:53:37.721Z,25.00
2022-09-28T03:54:37.679Z,27.30
2022-09-28T03:55:37.643Z,24.20
2022-09-28T03:56:37.598Z,24.80
2022-09-28T03:57:37.556Z,23.50
2022-09-28T03:58:37.525Z,23.80
2022-09-28T03:59:37.475Z,24.90
2022-09-28T04:00:37.484Z,24.60
2022-09-28T04:01:37.539Z,23.40
2022-09-28T04:02:37.398Z,23.60
2022-09-28T04:03:37.308Z,24.00
2022-09-28T04:04:37.278Z,25.10
2022-09-28T04:05:37.227Z,24.00
2022-09-28T04:06:37.183Z,24.30
2022-09-28T04:07:37.143Z,24.00
2022-09-28T04:08:37.103Z,24.50
2022-09-28T04:09:37.077Z,24.80
2022-09-28T04:10:37.019Z,24.80
2022-09-28T04:11:59.476Z,23.40
2022-09-28T04:12:36.938Z,23.90
2022-09-28T04:13:36.895Z,23.80
2022-09-28T04:14:36.851Z,24.60
2022-09-28T04:15:36.830Z,24.60
2022-09-28T04:16:36.820Z,23.30
2022-09-28T04:17:40.131Z,23.90
2022-09-28T04:18:36.691Z,23.20
2022-09-28T04:19:36.658Z,24.20
2022-09-28T04:20:36.605Z,24.30
2022-09-28T04:21:36.566Z,24.10
2022-09-28T04:22:36.520Z,26.00
2022-09-28T04:23:36.485Z,24.00
2022-09-28T04:24:36.457Z,23.40
2022-09-28T04:25:36.407Z,24.10
2022-09-28T04:26:36.371Z,22.80
2022-09-28T04:27:36.322Z,27.40
2022-09-28T04:28:36.278Z,24.20
2022-09-28T04:29:36.245Z,24.50
2022-09-28T04:30:36.195Z,24.30
2022-09-28T04:31:36.248Z,26.00
2022-09-28T04:32:36.109Z,24.30
2022-09-28T04:33:36.070Z,23.90
2022-09-28T04:34:39.597Z,23.50
2022-09-28T04:35:35.986Z,23.70
2022-09-28T04:36:35.953Z,26.60
2022-09-28T04:37:35.919Z,24.60
2022-09-28T04:38:52.340Z,25.40
2022-09-28T04:39:35.823Z,24.90
2022-09-28T04:40:35.794Z,24.70
2022-09-28T04:41:35.740Z,24.40
2022-09-28T04:42:35.698Z,25.90
2022-09-28T04:43:35.666Z,25.10
2022-09-28T04:44:35.626Z,25.20
2022-09-28T04:45:35.611Z,27.90
2022-09-28T04:46:35.534Z,31.30
2022-09-28T04:47:35.491Z,24.90
2022-09-28T04:48:35.458Z,24.10
2022-09-28T04:49:35.445Z,23.70
2022-09-28T04:50:35.366Z,24.20
2022-09-28T04:51:35.332Z,24.40
2022-09-28T04:52:35.285Z,24.40
2022-09-28T04:53:35.247Z,23.80
2022-09-28T04:54:35.204Z,22.90
2022-09-28T04:55:35.181Z,23.00
2022-09-28T04:56:35.119Z,24.30
2022-09-28T04:57:35.121Z,22.10
2022-09-28T04:58:35.040Z,23.70
2022-09-28T04:59:34.997Z,24.10
2022-09-28T05:00:34.957Z,22.50
2022-09-28T05:01:34.984Z,22.60
2022-09-28T05:02:34.933Z,23.00
2022-09-28T05:03:34.832Z,22.60
2022-09-28T05:04:34.790Z,21.50
2022-09-28T05:05:34.751Z,22.70
2022-09-28T05:06:34.707Z,21.60
2022-09-28T05:07:34.668Z,21.60
2022-09-28T05:08:34.639Z,22.00
2022-09-28T05:09:38.290Z,22.30
2022-09-28T05:10:34.544Z,21.60
2022-09-28T05:11:34.501Z,21.70
2022-09-28T05:12:34.474Z,22.10
2022-09-28T05:13:34.421Z,21.60
2022-09-28T05:14:34.380Z,22.40
2022-09-28T05:15:34.338Z,21.30
2022-09-28T05:16:34.338Z,23.40
2022-09-28T05:17:34.257Z,22.60
2022-09-28T05:18:34.226Z,21.60
2022-09-28T05:19:34.183Z,22.30
2022-09-28T05:20:34.130Z,21.80
2022-09-28T05:21:34.092Z,21.20
2022-09-28T05:22:34.049Z,20.70
2022-09-28T05:23:34.649Z,21.30
2022-09-28T05:24:33.989Z,21.40
2022-09-28T05:25:33.929Z,22.10
2022-09-28T05:26:33.885Z,21.80
2022-09-28T05:27:33.843Z,21.30
2022-09-28T05:28:33.801Z,22.30
2022-09-28T05:29:33.762Z,22.10
2022-09-28T05:30:33.732Z,22.00
2022-09-28T05:31:33.723Z,21.70
2022-09-28T05:32:33.637Z,21.20
2022-09-28T05:33:33.598Z,22.50
2022-09-28T05:34:33.554Z,21.10
2022-09-28T05:35:33.515Z,21.60
2022-09-28T05:36:33.484Z,21.20
2022-09-28T05:37:33.432Z,21.30
2022-09-28T05:38:33.388Z,21.40
2022-09-28T05:39:33.349Z,21.80
2022-09-28T05:40:33.334Z,21.30
2022-09-28T05:41:33.268Z,21.70
2022-09-28T05:42:33.242Z,20.90
2022-09-28T05:43:33.186Z,20.20
2022-09-28T05:44:33.145Z,21.10
2022-09-28T05:45:33.131Z,21.10
2022-09-28T05:46:33.059Z,20.70
2022-09-28T05:47:33.023Z,19.70
2022-09-28T05:48:32.990Z,20.40
2022-09-28T05:49:32.948Z,20.20
2022-09-28T05:50:32.897Z,19.90
2022-09-28T05:51:32.854Z,19.30
2022-09-28T05:52:32.813Z,19.20
2022-09-28T05:53:32.775Z,18.60
2022-09-28T05:54:32.747Z,19.10
2022-09-28T05:55:32.779Z,18.10
2022-09-28T05:56:32.648Z,18.40
2022-09-28T05:57:32.617Z,18.30
2022-09-28T05:58:32.566Z,18.30
2022-09-28T05:59:32.528Z,18.10
2022-09-28T06:00:33.158Z,17.90
2022-09-28T06:01:32.589Z,18.40
2022-09-28T06:02:32.444Z,18.00
2022-09-28T06:03:32.360Z,18.80
2022-09-28T06:04:32.343Z,19.10
2022-09-28T06:05:32.282Z,17.20
2022-09-28T06:06:32.242Z,17.00
2022-09-28T06:07:32.209Z,17.00
2022-09-28T06:08:32.154Z,17.60
2022-09-28T06:09:32.143Z,17.80
2022-09-28T06:10:32.071Z,17.10
2022-09-28T06:11:32.033Z,18.40
2022-09-28T06:12:32.003Z,16.80
2022-09-28T06:13:31.949Z,16.90
2022-09-28T06:14:31.907Z,17.60
2022-09-28T06:15:31.866Z,17.60
2022-09-28T06:16:31.879Z,18.00
2022-09-28T06:17:31.787Z,16.60
2022-09-28T06:18:31.754Z,18.10
2022-09-28T06:19:31.705Z,16.60
2022-09-28T06:20:31.661Z,16.70
2022-09-28T06:21:31.620Z,15.90
2022-09-28T06:22:31.573Z,16.10
2022-09-28T06:23:31.537Z,15.80
2022-09-28T06:24:31.505Z,15.50
2022-09-28T06:25:31.457Z,16.90
2022-09-28T06:26:31.420Z,15.40
2022-09-28T06:27:31.386Z,15.80
2022-09-28T06:28:31.329Z,16.00
2022-09-28T06:29:31.300Z,14.80
2022-09-28T06:30:31.300Z,14.80
2022-09-28T06:31:31.218Z,15.10
2022-09-28T06:32:31.167Z,14.50
2022-09-28T06:33:31.131Z,14.30
2022-09-28T06:34:31.093Z,14.70
2022-09-28T06:35:31.052Z,15.50
2022-09-28T06:36:31.006Z,14.10
2022-09-28T06:37:30.982Z,13.40
2022-09-28T06:38:30.919Z,14.50
2022-09-28T06:39:30.881Z,13.20
2022-09-28T06:40:30.889Z,12.90
2022-09-28T06:41:30.795Z,13.70
2022-09-28T06:42:30.794Z,14.50
2022-09-28T06:43:34.278Z,14.10
2022-09-28T06:44:30.676Z,13.30
2022-09-28T06:45:30.657Z,12.80
2022-09-28T06:46:30.675Z,12.40
2022-09-28T06:47:30.550Z,12.80
2022-09-28T06:48:30.506Z,13.50
2022-09-28T06:49:30.467Z,12.70
2022-09-28T06:50:30.435Z,11.60
2022-09-28T06:51:30.390Z,12.40
2022-09-28T06:52:30.348Z,12.20
2022-09-28T06:53:30.312Z,12.10
2022-09-28T06:54:30.266Z,12.70
2022-09-28T06:55:30.242Z,12.70
2022-09-28T06:56:32.877Z,11.90
2022-09-28T06:57:30.145Z,11.80
2022-09-28T06:58:30.097Z,12.10
2022-09-28T06:59:30.056Z,12.20
2022-09-28T07:00:30.014Z,12.30
2022-09-28T07:01:30.040Z,11.60
2022-09-28T07:02:29.990Z,11.80
2022-09-28T07:03:29.893Z,11.30
2022-09-28T07:04:29.851Z,10.90
2022-09-28T07:05:29.811Z,13.30
2022-09-28T07:06:29.769Z,12.00
2022-09-28T07:07:29.742Z,11.20
2022-09-28T07:08:29.688Z,11.10
2022-09-28T07:09:33.466Z,11.80
2022-09-28T07:10:29.605Z,11.30
2022-09-28T07:11:29.567Z,10.50
2022-09-28T07:12:29.526Z,10.40
2022-09-28T07:13:49.237Z,10.90
2022-09-28T07:14:47.004Z,10.80
2022-09-28T07:15:29.401Z,9.80
2022-09-28T07:16:41.214Z,9.80
2022-09-28T07:17:29.525Z,9.10
2022-09-28T07:18:29.307Z,9.90
2022-09-28T07:19:29.250Z,9.10
2022-09-28T07:20:29.210Z,9.10
2022-09-28T07:21:30.677Z,9.90
2022-09-28T07:22:41.252Z,9.30
2022-09-28T07:23:29.076Z,9.30
2022-09-28T07:24:29.034Z,9.60
2022-09-28T07:25:29.010Z,8.90
2022-09-28T07:26:28.954Z,10.30
2022-09-28T07:27:29.152Z,10.00
2022-09-28T07:28:28.871Z,11.50
2022-09-28T07:29:28.843Z,10.10
2022-09-28T07:30:28.818Z,8.70
2022-09-28T07:31:28.754Z,8.40
2022-09-28T07:32:28.726Z,8.00
2022-09-28T07:33:28.668Z,8.90
2022-09-28T07:34:28.632Z,7.90
2022-09-28T07:35:28.610Z,7.70
2022-09-28T07:36:28.549Z,8.40
2022-09-28T07:37:28.507Z,8.00
2022-09-28T07:38:28.489Z,7.80
2022-09-28T07:39:28.428Z,8.60
2022-09-28T07:40:28.440Z,8.40
2022-09-28T07:41:28.356Z,7.60
2022-09-28T07:42:28.303Z,6.90
2022-09-28T07:43:28.262Z,7.50
2022-09-28T07:44:28.223Z,8.40
2022-09-28T07:45:28.294Z,7.40
2022-09-28T07:46:28.143Z,7.00
2022-09-28T07:47:33.826Z,7.50
2022-09-28T07:48:28.063Z,7.60
2022-09-28T07:49:37.223Z,7.80
2022-09-28T07:50:27.981Z,6.90
2022-09-28T07:51:27.954Z,8.60
2022-09-28T07:52:27.982Z,6.30
2022-09-28T07:53:27.859Z,6.70
2022-09-28T07:54:27.828Z,6.70
2022-09-28T07:55:27.782Z,5.70
2022-09-28T07:56:27.740Z,7.30
2022-09-28T07:57:27.702Z,7.10
2022-09-28T07:58:27.659Z,5.90
2022-09-28T07:59:27.662Z,6.30
2022-09-28T08:00:29.831Z,6.90
2022-09-28T08:01:27.602Z,5.90
2022-09-28T08:02:27.526Z,7.50
2022-09-28T08:03:27.478Z,6.70
2022-09-28T08:04:27.437Z,5.70
2022-09-28T08:05:27.391Z,7.10
2022-09-28T08:06:27.341Z,6.60
2022-09-28T08:07:27.307Z,5.20
2022-09-28T08:08:27.265Z,6.00
2022-09-28T08:09:27.223Z,6.80
2022-09-28T08:10:27.194Z,6.00
2022-09-28T08:11:27.141Z,6.90
2022-09-28T08:12:27.103Z,6.50
2022-09-28T08:13:27.425Z,6.70
2022-09-28T08:14:27.023Z,6.20
2022-09-28T08:15:26.996Z,5.30
2022-09-28T08:16:27.075Z,6.70
2022-09-28T08:17:26.905Z,7.40
2022-09-28T08:18:26.866Z,5.40
2022-09-28T08:19:26.825Z,10.40
2022-09-28T08:20:26.796Z,6.70
2022-09-28T08:21:26.758Z,5.60
2022-09-28T08:22:26.709Z,6.50
2022-09-28T08:23:26.667Z,5.60
2022-09-28T08:24:26.628Z,6.20
2022-09-28T08:25:26.589Z,7.00
2022-09-28T08:26:26.560Z,5.70
2022-09-28T08:27:26.511Z,5.70
2022-09-28T08:28:26.478Z,6.10
2022-09-28T08:29:26.433Z,5.40
2022-09-28T08:30:26.452Z,6.70
2022-09-28T08:31:26.389Z,7.00
2022-09-28T08:32:26.315Z,6.60
2022-09-28T08:33:26.277Z,6.30
2022-09-28T08:34:26.234Z,5.70
2022-09-28T08:35:26.194Z,6.50
2022-09-28T08:36:26.161Z,6.00
2022-09-28T08:37:26.134Z,6.10
2022-09-28T08:38:26.239Z,6.60
2022-09-28T08:39:26.037Z,5.60
2022-09-28T08:40:26.043Z,5.80
2022-09-28T08:41:25.959Z,5.60
2022-09-28T08:42:25.931Z,7.40
2022-09-28T08:43:25.881Z,5.80
2022-09-28T08:44:25.842Z,6.90
2022-09-28T08:45:25.802Z,6.20
2022-09-28T08:46:27.146Z,7.00
2022-09-28T08:47:25.737Z,6.30
2022-09-28T08:48:25.689Z,9.00
2022-09-28T08:49:30.874Z,6.50
2022-09-28T08:50:25.604Z,9.20
2022-09-28T08:51:25.563Z,8.20
2022-09-28T08:52:25.528Z,6.90
2022-09-28T08:53:25.499Z,8.80
2022-09-28T08:54:25.448Z,8.60
2022-09-28T08:55:25.405Z,6.60
2022-09-28T08:56:25.366Z,7.40
2022-09-28T08:57:25.327Z,7.10
2022-09-28T08:58:25.295Z,8.30
2022-09-28T08:59:25.271Z,8.70
2022-09-28T09:00:25.241Z,8.80
2022-09-28T09:01:25.183Z,6.90
2022-09-28T09:02:25.175Z,6.60
2022-09-28T09:03:25.088Z,7.10
2022-09-28T09:04:25.049Z,7.80
2022-09-28T09:05:25.032Z,6.60
2022-09-28T09:06:24.968Z,8.50
2022-09-28T09:07:24.955Z,7.40
2022-09-28T09:08:24.889Z,6.80
2022-09-28T09:09:24.864Z,9.80
2022-09-28T09:10:24.807Z,7.90
2022-09-28T09:11:24.795Z,9.90
2022-09-28T09:12:24.738Z,7.70
2022-09-28T09:13:24.691Z,6.50
2022-09-28T09:14:24.655Z,6.70
2022-09-28T09:15:24.613Z,6.60
2022-09-28T09:16:24.642Z,5.80
2022-09-28T09:17:24.552Z,6.40
2022-09-28T09:18:24.492Z,6.50
2022-09-28T09:19:24.455Z,6.90
2022-09-28T09:20:24.415Z,6.60
2022-09-28T09:21:24.373Z,7.80
2022-09-28T09:22:24.333Z,6.80
2022-09-28T09:23:24.326Z,7.00
2022-09-28T09:24:24.256Z,7.10
2022-09-28T09:25:24.217Z,7.80
2022-09-28T09:26:26.153Z,6.50
2022-09-28T09:27:24.146Z,7.70
2022-09-28T09:28:24.096Z,6.60
2022-09-28T09:29:24.056Z,6.90
2022-09-28T09:30:24.441Z,6.40
2022-09-28T09:31:24.011Z,7.00
2022-09-28T09:32:23.938Z,6.70
2022-09-28T09:33:23.899Z,6.50
2022-09-28T09:34:23.860Z,6.80
2022-09-28T09:35:29.040Z,6.10
2022-09-28T09:36:23.794Z,6.80
2022-09-28T09:37:23.743Z,7.80
2022-09-28T09:38:23.699Z,6.00
2022-09-28T09:39:23.658Z,5.70
2022-09-28T09:40:23.653Z,6.20
2022-09-28T09:41:23.592Z,5.20
2022-09-28T09:42:23.540Z,6.50
2022-09-28T09:43:26.753Z,5.50
2022-09-28T09:44:23.467Z,5.30
2022-09-28T09:45:23.424Z,5.70
2022-09-28T09:46:23.452Z,5.10
2022-09-28T09:47:23.353Z,5.50
2022-09-28T09:48:23.319Z,5.30
2022-09-28T09:49:23.266Z,5.50
2022-09-28T09:50:23.272Z,5.00
2022-09-28T09:51:23.188Z,7.10
2022-09-28T09:52:23.219Z,4.80
2022-09-28T09:53:23.119Z,4.70
2022-09-28T09:54:23.070Z,5.60
2022-09-28T09:55:27.439Z,4.70
2022-09-28T09:56:22.996Z,5.70
2022-09-28T09:57:22.956Z,5.00
2022-09-28T09:58:22.919Z,5.20
2022-09-28T09:59:22.891Z,4.80
2022-09-28T10:00:22.841Z,8.20
2022-09-28T10:01:22.818Z,4.00
2022-09-28T10:02:22.787Z,7.10
2022-09-28T10:03:22.723Z,3.90
2022-09-28T10:04:23.290Z,3.30
2022-09-28T10:05:22.670Z,4.40
2022-09-28T10:06:22.604Z,6.10
2022-09-28T10:07:22.566Z,5.00
2022-09-28T10:08:22.610Z,4.10
2022-09-28T10:09:22.501Z,4.60
2022-09-28T10:10:22.473Z,5.50
2022-09-28T10:11:22.461Z,7.30
2022-09-28T10:12:22.373Z,3.20
2022-09-28T10:13:22.345Z,5.00
2022-09-28T10:14:22.300Z,4.80
2022-09-28T10:15:22.273Z,6.60
2022-09-28T10:16:22.254Z,4.10
2022-09-28T10:17:22.185Z,4.50
2022-09-28T10:18:22.135Z,3.60
2022-09-28T10:19:22.098Z,4.80
2022-09-28T10:20:22.102Z,5.10
2022-09-28T10:21:22.032Z,5.50
2022-09-28T10:22:21.997Z,3.40
2022-09-28T10:23:21.951Z,3.80
2022-09-28T10:24:21.908Z,4.30
2022-09-28T10:25:21.861Z,3.30
2022-09-28T10:26:24.914Z,3.20
2022-09-28T10:27:21.803Z,4.10
2022-09-28T10:28:21.749Z,4.70
2022-09-28T10:29:21.706Z,4.20
2022-09-28T10:30:21.697Z,5.60
2022-09-28T10:31:21.661Z,3.40
2022-09-28T10:32:21.610Z,4.00
2022-09-28T10:33:21.570Z,5.60
2022-09-28T10:34:21.518Z,4.60
2022-09-28T10:35:21.475Z,3.10
2022-09-28T10:36:21.441Z,4.60
2022-09-28T10:37:21.404Z,4.50
2022-09-28T10:38:21.385Z,4.10
2022-09-28T10:39:21.328Z,2.70
2022-09-28T10:40:21.336Z,3.70
2022-09-28T10:41:21.274Z,3.10
2022-09-28T10:42:21.219Z,2.80
2022-09-28T10:43:21.171Z,3.20
2022-09-28T10:44:21.148Z,2.50
2022-09-28T10:45:21.093Z,3.40
2022-09-28T10:46:21.208Z,4.00
2022-09-28T10:47:21.024Z,3.00
2022-09-28T10:48:20.981Z,4.60
2022-09-28T10:49:20.963Z,2.90
2022-09-28T10:50:20.909Z,5.30
2022-09-28T10:51:20.868Z,3.30
2022-09-28T10:52:20.827Z,3.60
2022-09-28T10:53:20.790Z,3.10
2022-09-28T10:54:20.748Z,3.30
2022-09-28T10:55:20.721Z,4.40
2022-09-28T10:56:21.213Z,3.10
2022-09-28T10:57:20.636Z,4.00
2022-09-28T10:58:20.596Z,4.50
2022-09-28T10:59:20.961Z,2.20
2022-09-28T11:00:20.519Z,3.20
2022-09-28T11:01:20.562Z,3.70
2022-09-28T11:02:20.478Z,2.50
2022-09-28T11:03:20.403Z,3.30
2022-09-28T11:04:20.379Z,4.20
2022-09-28T11:05:20.329Z,3.50
2022-09-28T11:06:20.293Z,3.00
2022-09-28T11:07:20.258Z,2.10
2022-09-28T11:08:20.214Z,3.20
2022-09-28T11:09:20.234Z,3.20
2022-09-28T11:10:20.161Z,2.80
2022-09-28T11:11:20.105Z,2.60
2022-09-28T11:12:20.125Z,3.30
2022-09-28T11:13:20.025Z,3.90
2022-09-28T11:14:19.994Z,3.30
2022-09-28T11:15:19.954Z,3.70
2022-09-28T11:16:20.042Z,2.90
2022-09-28T11:17:19.874Z,3.10
2022-09-28T11:18:19.831Z,4.80
2022-09-28T11:19:19.794Z,3.10
2022-09-28T11:20:24.722Z,3.10
2022-09-28T11:21:19.735Z,3.40
2022-09-28T11:22:19.692Z,4.20
2022-09-28T11:23:19.650Z,2.00
2022-09-28T11:24:19.829Z,3.10
2022-09-28T11:25:19.564Z,2.20
2022-09-28T11:26:19.529Z,3.30
2022-09-28T11:27:19.486Z,3.40
2022-09-28T11:28:19.463Z,2.90
2022-09-28T11:29:19.520Z,3.40
2022-09-28T11:30:19.376Z,3.90
2022-09-28T11:31:19.342Z,3.10
2022-09-28T11:32:19.300Z,3.50
2022-09-28T11:33:19.260Z,3.20
2022-09-28T11:34:19.369Z,3.20
2022-09-28T11:35:19.183Z,3.00
2022-09-28T11:36:19.151Z,2.60
2022-09-28T11:37:19.108Z,3.90
2022-09-28T11:38:19.239Z,3.50
2022-09-28T11:39:19.451Z,3.50
2022-09-28T11:40:19.041Z,4.10
2022-09-28T11:41:18.957Z,2.80
2022-09-28T11:42:18.918Z,3.10
2022-09-28T11:43:23.729Z,2.00
2022-09-28T11:44:19.003Z,3.20
2022-09-28T11:45:18.805Z,2.00
2022-09-28T11:46:18.806Z,4.00
2022-09-28T11:47:18.729Z,2.50
2022-09-28T11:48:18.685Z,2.20
2022-09-28T11:49:18.648Z,3.50
2022-09-28T11:50:22.931Z,3.50
2022-09-28T11:51:18.573Z,2.40
2022-09-28T11:52:18.546Z,3.00
2022-09-28T11:53:18.498Z,2.30
2022-09-28T11:54:18.542Z,2.70
2022-09-28T11:55:18.420Z,2.60
2022-09-28T11:56:18.389Z,2.90
2022-09-28T11:57:18.345Z,5.50
2022-09-28T11:58:18.320Z,3.60
2022-09-28T11:59:18.265Z,1.90
2022-09-28T12:00:18.228Z,3.00
2022-09-28T12:01:19.156Z,4.90
2022-09-28T12:02:18.216Z,3.10
2022-09-28T12:03:18.204Z,3.30
2022-09-28T12:04:18.157Z,3.00
2022-09-28T12:05:20.840Z,3.40
2022-09-28T12:06:17.995Z,2.30
2022-09-28T12:07:17.959Z,2.30
2022-09-28T12:08:17.946Z,3.80
2022-09-28T12:09:17.949Z,6.60
2022-09-28T12:10:17.859Z,2.80
2022-09-28T12:11:17.807Z,3.90
2022-09-28T12:12:17.769Z,2.80
2022-09-28T12:13:17.731Z,4.20
2022-09-28T12:14:17.692Z,3.60
2022-09-28T12:15:17.668Z,4.50
2022-09-28T12:16:38.914Z,4.10
2022-09-28T12:17:20.100Z,4.00
2022-09-28T12:18:17.606Z,3.60
2022-09-28T12:19:17.611Z,3.10
2022-09-28T12:20:17.479Z,2.50
2022-09-28T12:21:17.434Z,2.90
2022-09-28T12:22:17.394Z,3.40
2022-09-28T12:23:17.358Z,3.20
2022-09-28T12:24:17.325Z,3.00
2022-09-28T12:25:17.302Z,1.90
2022-09-28T12:26:17.249Z,3.20
2022-09-28T12:27:17.216Z,3.90
2022-09-28T12:28:17.181Z,3.50
2022-09-28T12:29:17.146Z,3.40
2022-09-28T12:30:17.107Z,3.20
2022-09-28T12:31:17.144Z,2.50
2022-09-28T12:32:17.038Z,3.70
2022-09-28T12:33:17.002Z,3.40
2022-09-28T12:34:16.966Z,3.90
2022-09-28T12:35:16.933Z,3.60
2022-09-28T12:36:16.894Z,2.60
2022-09-28T12:37:16.869Z,3.30
2022-09-28T12:38:16.828Z,3.10
2022-09-28T12:39:23.994Z,2.10
2022-09-28T12:40:16.819Z,2.60
2022-09-28T12:41:16.736Z,3.30
2022-09-28T12:42:16.699Z,4.30
2022-09-28T12:43:16.645Z,2.80
2022-09-28T12:44:16.607Z,3.70
2022-09-28T12:45:16.580Z,3.30
2022-09-28T12:46:16.600Z,3.40
2022-09-28T12:47:16.497Z,3.00
2022-09-28T12:48:16.478Z,1.70
2022-09-28T12:51:16.351Z,2.80
2022-09-28T12:52:16.316Z,3.00
2022-09-28T12:53:16.281Z,2.90
2022-09-28T12:54:16.286Z,2.80
2022-09-28T12:55:16.222Z,3.60
2022-09-28T12:56:18.102Z,2.40
2022-09-28T12:57:16.132Z,2.80
2022-09-28T12:58:16.100Z,1.60
2022-09-28T12:59:16.133Z,2.20
2022-09-28T13:00:16.031Z,2.50
2022-09-28T13:01:15.996Z,3.50
2022-09-28T13:02:15.996Z,2.30
2022-09-28T13:03:15.914Z,2.30
2022-09-28T13:04:15.869Z,4.50
2022-09-28T13:05:15.834Z,1.90
2022-09-28T13:06:15.807Z,2.60
2022-09-28T13:07:15.761Z,2.20
2022-09-28T13:08:15.721Z,2.90